sensor_id;sensor_type;location;lat;lon;timestamp;temperature;humidity
56725;DHT22;42608;52.776;6.968;2022-08-19T00:01:21;17.40;99.90
56725;DHT22;42608;52.776;6.968;2022-08-19T00:03:47;17.40;99.90
56725;DHT22;42608;52.776;6.968;2022-08-19T00:06:14;17.40;99.90
56725;DHT22;42608;52.776;6.968;2022-08-19T00:08:40;17.40;99.90
56725;DHT22;42608;52.776;6.968;2022-08-19T00:11:06;17.40;99.90
56725;DHT22;42608;52.776;6.968;2022-08-19T00:13:33;17.30;99.90
56725;DHT22;42608;52.776;6.968;2022-08-19T00:15:58;17.20;99.90
56725;DHT22;42608;52.776;6.968;2022-08-19T00:18:25;17.20;99.90
56725;DHT22;42608;52.776;6.968;2022-08-19T00:20:51;17.20;99.90
56725;DHT22;42608;52.776;6.968;2022-08-19T00:23:17;17.10;99.90
56725;DHT22;42608;52.776;6.968;2022-08-19T00:25:43;17.10;99.90
56725;DHT22;42608;52.776;6.968;2022-08-19T00:28:09;17.10;99.90
56725;DHT22;42608;52.776;6.968;2022-08-19T00:30:35;17.10;99.90
56725;DHT22;42608;52.776;6.968;2022-08-19T00:33:00;17.20;99.90
56725;DHT22;42608;52.776;6.968;2022-08-19T00:35:26;17.20;99.90
56725;DHT22;42608;52.776;6.968;2022-08-19T00:37:53;17.20;99.90
56725;DHT22;42608;52.776;6.968;2022-08-19T00:40:19;17.20;99.90
56725;DHT22;42608;52.776;6.968;2022-08-19T00:42:46;17.10;99.90
56725;DHT22;42608;52.776;6.968;2022-08-19T00:45:15;17.10;99.90
56725;DHT22;42608;52.776;6.968;2022-08-19T00:47:43;17.10;99.90
56725;DHT22;42608;52.776;6.968;2022-08-19T00:50:11;17.10;99.90
56725;DHT22;42608;52.776;6.968;2022-08-19T00:52:43;17.10;99.90
56725;DHT22;42608;52.776;6.968;2022-08-19T00:55:16;17.10;99.90
56725;DHT22;42608;52.776;6.968;2022-08-19T00:57:46;17.00;99.90
56725;DHT22;42608;52.776;6.968;2022-08-19T01:00:15;17.00;99.90
56725;DHT22;42608;52.776;6.968;2022-08-19T01:02:43;17.00;99.90
56725;DHT22;42608;52.776;6.968;2022-08-19T01:05:15;16.90;99.90
56725;DHT22;42608;52.776;6.968;2022-08-19T01:07:43;16.90;99.90
56725;DHT22;42608;52.776;6.968;2022-08-19T01:10:14;16.80;99.90
56725;DHT22;42608;52.776;6.968;2022-08-19T01:12:40;16.90;99.90
56725;DHT22;42608;52.776;6.968;2022-08-19T01:15:09;16.80;99.90
56725;DHT22;42608;52.776;6.968;2022-08-19T01:17:36;16.80;99.90
56725;DHT22;42608;52.776;6.968;2022-08-19T01:20:05;16.70;99.90
56725;DHT22;42608;52.776;6.968;2022-08-19T01:22:40;16.80;99.90
56725;DHT22;42608;52.776;6.968;2022-08-19T01:25:07;16.80;99.90
56725;DHT22;42608;52.776;6.968;2022-08-19T01:27:42;16.80;99.90
56725;DHT22;42608;52.776;6.968;2022-08-19T01:30:11;16.80;99.90
56725;DHT22;42608;52.776;6.968;2022-08-19T01:32:37;16.80;99.90
56725;DHT22;42608;52.776;6.968;2022-08-19T01:35:04;16.80;99.90
56725;DHT22;42608;52.776;6.968;2022-08-19T01:37:50;16.80;99.90
56725;DHT22;42608;52.776;6.968;2022-08-19T01:40:19;16.80;99.90
56725;DHT22;42608;52.776;6.968;2022-08-19T01:42:50;16.70;99.90
56725;DHT22;42608;52.776;6.968;2022-08-19T01:45:17;16.70;99.90
56725;DHT22;42608;52.776;6.968;2022-08-19T01:47:43;16.70;99.90
56725;DHT22;42608;52.776;6.968;2022-08-19T01:50:10;16.70;99.90
56725;DHT22;42608;52.776;6.968;2022-08-19T01:52:38;16.60;99.90
56725;DHT22;42608;52.776;6.968;2022-08-19T01:55:08;16.60;99.90
56725;DHT22;42608;52.776;6.968;2022-08-19T01:57:34;16.60;99.90
56725;DHT22;42608;52.776;6.968;2022-08-19T02:00:00;16.60;99.90
56725;DHT22;42608;52.776;6.968;2022-08-19T02:02:27;16.50;99.90
56725;DHT22;42608;52.776;6.968;2022-08-19T02:04:53;16.50;99.90
56725;DHT22;42608;52.776;6.968;2022-08-19T02:07:20;16.50;99.90
56725;DHT22;42608;52.776;6.968;2022-08-19T02:09:47;16.40;99.90
56725;DHT22;42608;52.776;6.968;2022-08-19T02:12:13;16.40;99.90
56725;DHT22;42608;52.776;6.968;2022-08-19T02:14:39;16.40;99.90
56725;DHT22;42608;52.776;6.968;2022-08-19T02:17:05;16.30;99.90
56725;DHT22;42608;52.776;6.968;2022-08-19T02:19:31;16.30;99.90
56725;DHT22;42608;52.776;6.968;2022-08-19T02:21:59;16.20;99.90
56725;DHT22;42608;52.776;6.968;2022-08-19T02:24:25;16.30;99.90
56725;DHT22;42608;52.776;6.968;2022-08-19T02:26:52;16.30;99.90
56725;DHT22;42608;52.776;6.968;2022-08-19T02:29:17;16.20;99.90
56725;DHT22;42608;52.776;6.968;2022-08-19T02:31:43;16.20;99.90
56725;DHT22;42608;52.776;6.968;2022-08-19T02:34:09;16.30;99.90
56725;DHT22;42608;52.776;6.968;2022-08-19T02:36:34;16.30;99.90
56725;DHT22;42608;52.776;6.968;2022-08-19T02:39:00;16.20;99.90
56725;DHT22;42608;52.776;6.968;2022-08-19T02:41:29;16.30;99.90
56725;DHT22;42608;52.776;6.968;2022-08-19T02:43:57;16.20;99.90
56725;DHT22;42608;52.776;6.968;2022-08-19T02:46:28;16.20;99.90
56725;DHT22;42608;52.776;6.968;2022-08-19T02:49:01;16.30;99.90
56725;DHT22;42608;52.776;6.968;2022-08-19T02:51:31;16.20;99.90
56725;DHT22;42608;52.776;6.968;2022-08-19T02:53:57;16.20;99.90
56725;DHT22;42608;52.776;6.968;2022-08-19T02:56:23;16.10;99.90
56725;DHT22;42608;52.776;6.968;2022-08-19T02:58:56;16.10;99.90
56725;DHT22;42608;52.776;6.968;2022-08-19T03:01:30;16.10;99.90
56725;DHT22;42608;52.776;6.968;2022-08-19T03:04:04;16.10;99.90
56725;DHT22;42608;52.776;6.968;2022-08-19T03:06:33;16.10;99.90
56725;DHT22;42608;52.776;6.968;2022-08-19T03:09:01;16.10;99.90
56725;DHT22;42608;52.776;6.968;2022-08-19T03:11:31;16.10;99.90
56725;DHT22;42608;52.776;6.968;2022-08-19T03:13:58;16.00;99.90
56725;DHT22;42608;52.776;6.968;2022-08-19T03:16:29;16.00;99.90
56725;DHT22;42608;52.776;6.968;2022-08-19T03:18:56;16.00;99.90
56725;DHT22;42608;52.776;6.968;2022-08-19T03:21:27;16.00;99.90
56725;DHT22;42608;52.776;6.968;2022-08-19T03:23:57;16.00;99.90
56725;DHT22;42608;52.776;6.968;2022-08-19T03:26:23;16.00;99.90
56725;DHT22;42608;52.776;6.968;2022-08-19T03:28:49;16.00;99.90
56725;DHT22;42608;52.776;6.968;2022-08-19T03:31:20;15.90;99.90
56725;DHT22;42608;52.776;6.968;2022-08-19T03:33:49;15.90;99.90
56725;DHT22;42608;52.776;6.968;2022-08-19T03:36:21;15.90;99.90
56725;DHT22;42608;52.776;6.968;2022-08-19T03:38:51;15.90;99.90
56725;DHT22;42608;52.776;6.968;2022-08-19T03:41:22;15.90;99.90
56725;DHT22;42608;52.776;6.968;2022-08-19T03:43:48;15.90;99.90
56725;DHT22;42608;52.776;6.968;2022-08-19T03:46:21;15.80;99.90
56725;DHT22;42608;52.776;6.968;2022-08-19T03:48:50;15.70;99.90
56725;DHT22;42608;52.776;6.968;2022-08-19T03:53:46;15.60;99.90
56725;DHT22;42608;52.776;6.968;2022-08-19T03:56:12;15.50;99.90
56725;DHT22;42608;52.776;6.968;2022-08-19T03:58:38;15.50;99.90
56725;DHT22;42608;52.776;6.968;2022-08-19T04:01:14;15.50;99.90
56725;DHT22;42608;52.776;6.968;2022-08-19T04:03:40;15.40;99.90
56725;DHT22;42608;52.776;6.968;2022-08-19T04:06:15;15.40;99.90
56725;DHT22;42608;52.776;6.968;2022-08-19T04:08:42;15.50;99.90
56725;DHT22;42608;52.776;6.968;2022-08-19T04:11:10;15.50;99.90
56725;DHT22;42608;52.776;6.968;2022-08-19T04:13:37;15.40;99.90
56725;DHT22;42608;52.776;6.968;2022-08-19T04:16:04;15.40;99.90
56725;DHT22;42608;52.776;6.968;2022-08-19T04:18:30;15.40;99.90
56725;DHT22;42608;52.776;6.968;2022-08-19T04:20:56;15.40;99.90
56725;DHT22;42608;52.776;6.968;2022-08-19T04:23:23;15.30;99.90
56725;DHT22;42608;52.776;6.968;2022-08-19T04:25:49;15.40;99.90
56725;DHT22;42608;52.776;6.968;2022-08-19T04:28:14;15.30;99.90
56725;DHT22;42608;52.776;6.968;2022-08-19T04:30:43;15.30;99.90
56725;DHT22;42608;52.776;6.968;2022-08-19T04:33:10;15.40;99.90
56725;DHT22;42608;52.776;6.968;2022-08-19T04:35:46;15.40;99.90
56725;DHT22;42608;52.776;6.968;2022-08-19T04:38:13;15.40;99.90
56725;DHT22;42608;52.776;6.968;2022-08-19T04:40:45;15.40;99.90
56725;DHT22;42608;52.776;6.968;2022-08-19T04:43:31;15.50;99.90
56725;DHT22;42608;52.776;6.968;2022-08-19T04:45:57;15.50;99.90
56725;DHT22;42608;52.776;6.968;2022-08-19T04:48:24;15.50;99.90
56725;DHT22;42608;52.776;6.968;2022-08-19T04:50:57;15.60;99.90
56725;DHT22;42608;52.776;6.968;2022-08-19T04:53:25;15.70;99.90
56725;DHT22;42608;52.776;6.968;2022-08-19T04:55:52;15.70;99.90
56725;DHT22;42608;52.776;6.968;2022-08-19T04:58:18;15.80;99.90
56725;DHT22;42608;52.776;6.968;2022-08-19T05:00:43;15.80;99.90
56725;DHT22;42608;52.776;6.968;2022-08-19T05:03:10;15.80;99.90
56725;DHT22;42608;52.776;6.968;2022-08-19T05:05:40;15.90;99.90
56725;DHT22;42608;52.776;6.968;2022-08-19T05:08:06;15.90;99.90
56725;DHT22;42608;52.776;6.968;2022-08-19T05:10:35;16.00;99.90
56725;DHT22;42608;52.776;6.968;2022-08-19T05:13:02;16.00;99.90
56725;DHT22;42608;52.776;6.968;2022-08-19T05:15:28;16.10;99.90
56725;DHT22;42608;52.776;6.968;2022-08-19T05:17:53;16.10;99.90
56725;DHT22;42608;52.776;6.968;2022-08-19T05:20:38;16.10;99.90
56725;DHT22;42608;52.776;6.968;2022-08-19T05:23:22;16.10;99.90
56725;DHT22;42608;52.776;6.968;2022-08-19T05:25:49;16.20;99.90
56725;DHT22;42608;52.776;6.968;2022-08-19T05:28:15;16.20;99.90
56725;DHT22;42608;52.776;6.968;2022-08-19T05:30:41;16.30;99.90
56725;DHT22;42608;52.776;6.968;2022-08-19T05:33:08;16.30;99.90
56725;DHT22;42608;52.776;6.968;2022-08-19T05:35:37;16.40;99.90
56725;DHT22;42608;52.776;6.968;2022-08-19T05:38:03;16.40;99.90
56725;DHT22;42608;52.776;6.968;2022-08-19T05:40:29;16.40;99.90
56725;DHT22;42608;52.776;6.968;2022-08-19T05:42:54;16.40;99.90
56725;DHT22;42608;52.776;6.968;2022-08-19T05:45:20;16.40;99.90
56725;DHT22;42608;52.776;6.968;2022-08-19T05:47:47;16.30;99.90
56725;DHT22;42608;52.776;6.968;2022-08-19T05:50:13;16.30;99.90
56725;DHT22;42608;52.776;6.968;2022-08-19T05:52:39;16.40;99.90
56725;DHT22;42608;52.776;6.968;2022-08-19T05:55:05;16.40;99.90
56725;DHT22;42608;52.776;6.968;2022-08-19T05:57:31;16.40;99.90
56725;DHT22;42608;52.776;6.968;2022-08-19T05:59:57;16.40;99.90
56725;DHT22;42608;52.776;6.968;2022-08-19T06:02:26;16.50;99.90
56725;DHT22;42608;52.776;6.968;2022-08-19T06:04:52;16.50;99.90
56725;DHT22;42608;52.776;6.968;2022-08-19T06:07:18;16.50;99.90
56725;DHT22;42608;52.776;6.968;2022-08-19T06:09:44;16.60;99.90
56725;DHT22;42608;52.776;6.968;2022-08-19T06:12:10;16.70;99.90
56725;DHT22;42608;52.776;6.968;2022-08-19T06:14:36;16.70;99.90
56725;DHT22;42608;52.776;6.968;2022-08-19T06:17:02;16.70;99.90
56725;DHT22;42608;52.776;6.968;2022-08-19T06:19:29;16.70;99.90
56725;DHT22;42608;52.776;6.968;2022-08-19T06:21:56;16.80;99.90
56725;DHT22;42608;52.776;6.968;2022-08-19T06:24:26;16.80;99.90
56725;DHT22;42608;52.776;6.968;2022-08-19T06:26:53;16.90;99.90
56725;DHT22;42608;52.776;6.968;2022-08-19T06:29:22;16.90;99.90
56725;DHT22;42608;52.776;6.968;2022-08-19T06:31:51;16.90;99.90
56725;DHT22;42608;52.776;6.968;2022-08-19T06:34:18;17.00;99.90
56725;DHT22;42608;52.776;6.968;2022-08-19T06:36:49;17.10;99.90
56725;DHT22;42608;52.776;6.968;2022-08-19T06:39:24;17.10;99.90
56725;DHT22;42608;52.776;6.968;2022-08-19T06:41:52;17.20;99.90
56725;DHT22;42608;52.776;6.968;2022-08-19T06:44:20;17.20;99.90
56725;DHT22;42608;52.776;6.968;2022-08-19T06:46:47;17.30;99.90
56725;DHT22;42608;52.776;6.968;2022-08-19T06:49:15;17.30;99.90
56725;DHT22;42608;52.776;6.968;2022-08-19T06:51:43;17.40;99.90
56725;DHT22;42608;52.776;6.968;2022-08-19T06:54:10;17.50;99.90
56725;DHT22;42608;52.776;6.968;2022-08-19T06:56:36;17.50;99.90
56725;DHT22;42608;52.776;6.968;2022-08-19T06:59:10;17.60;99.90
56725;DHT22;42608;52.776;6.968;2022-08-19T07:01:39;17.70;99.90
56725;DHT22;42608;52.776;6.968;2022-08-19T07:04:08;17.80;99.90
56725;DHT22;42608;52.776;6.968;2022-08-19T07:06:35;17.80;99.90
56725;DHT22;42608;52.776;6.968;2022-08-19T07:09:01;17.90;99.90
56725;DHT22;42608;52.776;6.968;2022-08-19T07:11:27;17.90;99.90
56725;DHT22;42608;52.776;6.968;2022-08-19T07:13:53;18.00;99.90
56725;DHT22;42608;52.776;6.968;2022-08-19T07:16:20;18.00;99.90
56725;DHT22;42608;52.776;6.968;2022-08-19T07:18:50;18.10;99.90
56725;DHT22;42608;52.776;6.968;2022-08-19T07:21:21;18.20;99.90
56725;DHT22;42608;52.776;6.968;2022-08-19T07:23:50;18.30;99.90
56725;DHT22;42608;52.776;6.968;2022-08-19T07:26:25;18.30;99.90
56725;DHT22;42608;52.776;6.968;2022-08-19T07:28:51;18.40;99.90
56725;DHT22;42608;52.776;6.968;2022-08-19T07:31:19;18.50;99.90
56725;DHT22;42608;52.776;6.968;2022-08-19T07:33:47;18.50;99.90
56725;DHT22;42608;52.776;6.968;2022-08-19T07:36:17;18.60;99.90
56725;DHT22;42608;52.776;6.968;2022-08-19T07:38:45;18.70;99.90
56725;DHT22;42608;52.776;6.968;2022-08-19T07:41:16;18.80;99.90
56725;DHT22;42608;52.776;6.968;2022-08-19T07:43:42;18.90;99.90
56725;DHT22;42608;52.776;6.968;2022-08-19T07:46:09;18.90;99.90
56725;DHT22;42608;52.776;6.968;2022-08-19T07:48:36;19.00;99.90
56725;DHT22;42608;52.776;6.968;2022-08-19T07:51:04;19.10;99.90
56725;DHT22;42608;52.776;6.968;2022-08-19T07:53:31;19.20;99.90
56725;DHT22;42608;52.776;6.968;2022-08-19T07:55:58;19.20;99.90
56725;DHT22;42608;52.776;6.968;2022-08-19T07:58:32;19.30;99.90
56725;DHT22;42608;52.776;6.968;2022-08-19T08:00:59;19.40;99.90
56725;DHT22;42608;52.776;6.968;2022-08-19T08:03:26;19.50;99.90
56725;DHT22;42608;52.776;6.968;2022-08-19T08:06:13;19.60;99.90
56725;DHT22;42608;52.776;6.968;2022-08-19T08:08:57;19.70;99.90
56725;DHT22;42608;52.776;6.968;2022-08-19T08:11:51;19.80;99.90
56725;DHT22;42608;52.776;6.968;2022-08-19T08:14:21;19.90;99.90
56725;DHT22;42608;52.776;6.968;2022-08-19T08:16:48;19.90;99.90
56725;DHT22;42608;52.776;6.968;2022-08-19T08:19:16;19.90;99.90
56725;DHT22;42608;52.776;6.968;2022-08-19T08:21:42;19.90;99.90
56725;DHT22;42608;52.776;6.968;2022-08-19T08:24:08;20.00;99.90
56725;DHT22;42608;52.776;6.968;2022-08-19T08:26:34;20.10;99.90
56725;DHT22;42608;52.776;6.968;2022-08-19T08:28:59;20.10;99.90
56725;DHT22;42608;52.776;6.968;2022-08-19T08:31:25;20.10;99.90
56725;DHT22;42608;52.776;6.968;2022-08-19T08:33:51;20.20;99.90
56725;DHT22;42608;52.776;6.968;2022-08-19T08:36:17;20.20;99.90
56725;DHT22;42608;52.776;6.968;2022-08-19T08:38:44;20.30;99.90
56725;DHT22;42608;52.776;6.968;2022-08-19T08:41:28;20.40;99.90
56725;DHT22;42608;52.776;6.968;2022-08-19T08:43:56;20.40;99.90
56725;DHT22;42608;52.776;6.968;2022-08-19T08:46:48;20.50;99.90
56725;DHT22;42608;52.776;6.968;2022-08-19T08:54:47;20.70;99.90
56725;DHT22;42608;52.776;6.968;2022-08-19T09:02:48;20.80;99.90
56725;DHT22;42608;52.776;6.968;2022-08-19T09:05:14;20.90;99.90
56725;DHT22;42608;52.776;6.968;2022-08-19T09:08:00;20.90;99.90
56725;DHT22;42608;52.776;6.968;2022-08-19T09:10:37;21.00;99.90
56725;DHT22;42608;52.776;6.968;2022-08-19T09:16:39;21.20;99.90
56725;DHT22;42608;52.776;6.968;2022-08-19T09:18:51;21.40;99.90
56725;DHT22;42608;52.776;6.968;2022-08-19T09:21:20;21.50;99.90
56725;DHT22;42608;52.776;6.968;2022-08-19T09:23:46;21.50;99.90
56725;DHT22;42608;52.776;6.968;2022-08-19T09:26:17;21.60;99.90
56725;DHT22;42608;52.776;6.968;2022-08-19T09:28:44;21.60;99.90
56725;DHT22;42608;52.776;6.968;2022-08-19T09:31:12;21.80;99.90
56725;DHT22;42608;52.776;6.968;2022-08-19T09:33:38;21.80;99.90
56725;DHT22;42608;52.776;6.968;2022-08-19T09:36:10;21.80;99.90
56725;DHT22;42608;52.776;6.968;2022-08-19T09:38:36;21.90;99.90
56725;DHT22;42608;52.776;6.968;2022-08-19T09:41:16;21.90;99.90
56725;DHT22;42608;52.776;6.968;2022-08-19T09:43:45;22.00;99.90
56725;DHT22;42608;52.776;6.968;2022-08-19T09:46:12;22.00;99.90
56725;DHT22;42608;52.776;6.968;2022-08-19T09:48:41;22.00;99.90
56725;DHT22;42608;52.776;6.968;2022-08-19T09:51:10;22.10;99.90
56725;DHT22;42608;52.776;6.968;2022-08-19T09:53:37;22.10;99.90
56725;DHT22;42608;52.776;6.968;2022-08-19T09:56:04;22.20;99.90
56725;DHT22;42608;52.776;6.968;2022-08-19T09:58:31;22.30;99.90
56725;DHT22;42608;52.776;6.968;2022-08-19T10:00:59;22.40;99.90
56725;DHT22;42608;52.776;6.968;2022-08-19T10:03:26;22.50;99.90
56725;DHT22;42608;52.776;6.968;2022-08-19T10:05:53;22.60;99.90
56725;DHT22;42608;52.776;6.968;2022-08-19T10:08:22;22.60;99.90
56725;DHT22;42608;52.776;6.968;2022-08-19T10:10:49;22.60;99.90
56725;DHT22;42608;52.776;6.968;2022-08-19T10:13:19;22.70;99.90
56725;DHT22;42608;52.776;6.968;2022-08-19T10:15:56;22.80;99.90
56725;DHT22;42608;52.776;6.968;2022-08-19T10:18:27;22.90;99.90
56725;DHT22;42608;52.776;6.968;2022-08-19T10:21:06;23.00;99.90
56725;DHT22;42608;52.776;6.968;2022-08-19T10:23:40;23.00;99.90
56725;DHT22;42608;52.776;6.968;2022-08-19T10:26:11;23.00;99.90
56725;DHT22;42608;52.776;6.968;2022-08-19T10:28:37;23.00;99.90
56725;DHT22;42608;52.776;6.968;2022-08-19T10:31:15;23.10;99.90
56725;DHT22;42608;52.776;6.968;2022-08-19T10:33:41;23.20;99.90
56725;DHT22;42608;52.776;6.968;2022-08-19T10:36:12;23.30;99.90
56725;DHT22;42608;52.776;6.968;2022-08-19T10:38:41;23.30;99.90
56725;DHT22;42608;52.776;6.968;2022-08-19T10:41:15;23.30;99.90
56725;DHT22;42608;52.776;6.968;2022-08-19T10:43:41;23.40;99.90
56725;DHT22;42608;52.776;6.968;2022-08-19T10:46:13;23.40;99.90
56725;DHT22;42608;52.776;6.968;2022-08-19T10:48:40;23.50;99.90
56725;DHT22;42608;52.776;6.968;2022-08-19T10:51:07;23.60;99.90
56725;DHT22;42608;52.776;6.968;2022-08-19T10:53:51;23.70;99.90
56725;DHT22;42608;52.776;6.968;2022-08-19T10:56:18;23.70;99.90
56725;DHT22;42608;52.776;6.968;2022-08-19T10:59:03;23.80;99.90
56725;DHT22;42608;52.776;6.968;2022-08-19T11:01:29;23.90;99.90
56725;DHT22;42608;52.776;6.968;2022-08-19T11:03:56;24.00;99.90
56725;DHT22;42608;52.776;6.968;2022-08-19T11:06:23;24.00;99.90
56725;DHT22;42608;52.776;6.968;2022-08-19T11:08:54;24.10;99.90
56725;DHT22;42608;52.776;6.968;2022-08-19T11:11:20;24.20;99.90
56725;DHT22;42608;52.776;6.968;2022-08-19T11:13:49;24.30;99.90
56725;DHT22;42608;52.776;6.968;2022-08-19T11:16:18;24.40;99.90
56725;DHT22;42608;52.776;6.968;2022-08-19T11:18:46;24.40;99.90
56725;DHT22;42608;52.776;6.968;2022-08-19T11:21:31;24.40;99.90
56725;DHT22;42608;52.776;6.968;2022-08-19T11:24:00;24.40;99.90
56725;DHT22;42608;52.776;6.968;2022-08-19T11:26:29;24.30;99.90
56725;DHT22;42608;52.776;6.968;2022-08-19T11:28:56;24.30;99.90
56725;DHT22;42608;52.776;6.968;2022-08-19T11:31:25;24.30;99.90
56725;DHT22;42608;52.776;6.968;2022-08-19T11:33:51;24.30;99.90
56725;DHT22;42608;52.776;6.968;2022-08-19T11:36:20;24.30;99.90
56725;DHT22;42608;52.776;6.968;2022-08-19T11:38:48;24.40;99.90
56725;DHT22;42608;52.776;6.968;2022-08-19T11:41:15;24.40;99.90
56725;DHT22;42608;52.776;6.968;2022-08-19T11:43:41;24.40;99.90
56725;DHT22;42608;52.776;6.968;2022-08-19T11:46:09;24.40;99.90
56725;DHT22;42608;52.776;6.968;2022-08-19T11:48:36;24.40;99.90
56725;DHT22;42608;52.776;6.968;2022-08-19T11:51:08;24.40;99.90
56725;DHT22;42608;52.776;6.968;2022-08-19T11:53:35;24.50;99.90
56725;DHT22;42608;52.776;6.968;2022-08-19T11:56:01;24.40;99.90
56725;DHT22;42608;52.776;6.968;2022-08-19T11:58:28;24.40;99.90
56725;DHT22;42608;52.776;6.968;2022-08-19T12:00:54;24.50;99.90
56725;DHT22;42608;52.776;6.968;2022-08-19T12:03:20;24.50;99.90
56725;DHT22;42608;52.776;6.968;2022-08-19T12:05:46;24.60;99.90
56725;DHT22;42608;52.776;6.968;2022-08-19T12:08:12;24.70;99.90
56725;DHT22;42608;52.776;6.968;2022-08-19T12:10:39;24.80;99.90
56725;DHT22;42608;52.776;6.968;2022-08-19T12:13:08;25.00;99.90
56725;DHT22;42608;52.776;6.968;2022-08-19T12:15:39;25.10;99.90
56725;DHT22;42608;52.776;6.968;2022-08-19T12:18:08;25.30;99.70
56725;DHT22;42608;52.776;6.968;2022-08-19T12:20:37;25.40;99.70
56725;DHT22;42608;52.776;6.968;2022-08-19T12:23:05;25.50;98.00
56725;DHT22;42608;52.776;6.968;2022-08-19T12:25:31;25.60;97.40
56725;DHT22;42608;52.776;6.968;2022-08-19T12:27:57;25.70;96.00
56725;DHT22;42608;52.776;6.968;2022-08-19T12:30:23;25.70;95.90
56725;DHT22;42608;52.776;6.968;2022-08-19T12:32:49;25.80;95.30
56725;DHT22;42608;52.776;6.968;2022-08-19T12:35:16;25.80;95.00
56725;DHT22;42608;52.776;6.968;2022-08-19T12:37:43;25.90;95.40
56725;DHT22;42608;52.776;6.968;2022-08-19T12:40:10;26.00;96.40
56725;DHT22;42608;52.776;6.968;2022-08-19T12:42:38;26.10;95.60
56725;DHT22;42608;52.776;6.968;2022-08-19T12:45:11;26.20;94.00
56725;DHT22;42608;52.776;6.968;2022-08-19T12:47:37;26.30;92.50
56725;DHT22;42608;52.776;6.968;2022-08-19T12:50:04;26.40;92.10
56725;DHT22;42608;52.776;6.968;2022-08-19T12:52:35;26.40;90.70
56725;DHT22;42608;52.776;6.968;2022-08-19T12:55:04;26.40;91.10
56725;DHT22;42608;52.776;6.968;2022-08-19T12:57:30;26.40;90.50
56725;DHT22;42608;52.776;6.968;2022-08-19T13:00:20;26.20;87.40
56725;DHT22;42608;52.776;6.968;2022-08-19T13:02:50;26.20;88.70
56725;DHT22;42608;52.776;6.968;2022-08-19T13:05:19;26.00;90.00
56725;DHT22;42608;52.776;6.968;2022-08-19T13:07:46;26.00;89.70
56725;DHT22;42608;52.776;6.968;2022-08-19T13:10:14;26.00;87.80
56725;DHT22;42608;52.776;6.968;2022-08-19T13:12:42;26.10;87.00
56725;DHT22;42608;52.776;6.968;2022-08-19T13:15:08;26.20;85.50
56725;DHT22;42608;52.776;6.968;2022-08-19T13:17:35;26.40;83.10
56725;DHT22;42608;52.776;6.968;2022-08-19T13:20:01;26.50;81.40
56725;DHT22;42608;52.776;6.968;2022-08-19T13:22:27;26.60;81.50
56725;DHT22;42608;52.776;6.968;2022-08-19T13:24:53;26.70;80.90
56725;DHT22;42608;52.776;6.968;2022-08-19T13:27:19;26.70;79.40
56725;DHT22;42608;52.776;6.968;2022-08-19T13:29:44;26.70;79.80
56725;DHT22;42608;52.776;6.968;2022-08-19T13:32:29;26.70;77.80
56725;DHT22;42608;52.776;6.968;2022-08-19T13:35:15;26.60;78.20
56725;DHT22;42608;52.776;6.968;2022-08-19T13:37:41;26.50;78.70
56725;DHT22;42608;52.776;6.968;2022-08-19T13:40:16;26.40;79.40
56725;DHT22;42608;52.776;6.968;2022-08-19T13:42:44;26.40;78.60
56725;DHT22;42608;52.776;6.968;2022-08-19T13:45:12;26.40;79.30
56725;DHT22;42608;52.776;6.968;2022-08-19T13:47:38;26.40;79.50
56725;DHT22;42608;52.776;6.968;2022-08-19T13:50:11;26.40;80.00
56725;DHT22;42608;52.776;6.968;2022-08-19T13:52:39;26.50;77.80
56725;DHT22;42608;52.776;6.968;2022-08-19T13:55:05;26.50;76.30
56725;DHT22;42608;52.776;6.968;2022-08-19T13:57:32;26.60;74.30
56725;DHT22;42608;52.776;6.968;2022-08-19T13:59:58;26.60;72.90
56725;DHT22;42608;52.776;6.968;2022-08-19T14:02:24;26.60;71.40
56725;DHT22;42608;52.776;6.968;2022-08-19T14:04:50;26.50;70.40
56725;DHT22;42608;52.776;6.968;2022-08-19T14:07:16;26.50;69.50
56725;DHT22;42608;52.776;6.968;2022-08-19T14:09:41;26.50;68.60
56725;DHT22;42608;52.776;6.968;2022-08-19T14:12:08;26.50;68.80
56725;DHT22;42608;52.776;6.968;2022-08-19T14:14:38;26.60;70.40
56725;DHT22;42608;52.776;6.968;2022-08-19T14:17:08;26.60;71.00
56725;DHT22;42608;52.776;6.968;2022-08-19T14:19:34;26.50;71.80
56725;DHT22;42608;52.776;6.968;2022-08-19T14:22:00;26.50;71.60
56725;DHT22;42608;52.776;6.968;2022-08-19T14:24:26;26.50;71.80
56725;DHT22;42608;52.776;6.968;2022-08-19T14:26:52;26.40;73.10
56725;DHT22;42608;52.776;6.968;2022-08-19T14:29:18;26.50;72.20
56725;DHT22;42608;52.776;6.968;2022-08-19T14:31:44;26.50;71.80
56725;DHT22;42608;52.776;6.968;2022-08-19T14:34:10;26.50;71.10
56725;DHT22;42608;52.776;6.968;2022-08-19T14:36:37;26.50;70.90
56725;DHT22;42608;52.776;6.968;2022-08-19T14:39:03;26.40;69.70
56725;DHT22;42608;52.776;6.968;2022-08-19T14:41:29;26.40;70.00
56725;DHT22;42608;52.776;6.968;2022-08-19T14:43:59;26.40;70.60
56725;DHT22;42608;52.776;6.968;2022-08-19T14:46:26;26.40;71.20
56725;DHT22;42608;52.776;6.968;2022-08-19T14:48:54;26.40;72.40
56725;DHT22;42608;52.776;6.968;2022-08-19T14:51:22;26.40;72.20
56725;DHT22;42608;52.776;6.968;2022-08-19T14:53:48;26.50;73.00
56725;DHT22;42608;52.776;6.968;2022-08-19T14:56:17;26.60;71.70
56725;DHT22;42608;52.776;6.968;2022-08-19T14:58:44;26.60;70.40
56725;DHT22;42608;52.776;6.968;2022-08-19T15:01:10;26.50;70.10
56725;DHT22;42608;52.776;6.968;2022-08-19T15:03:37;26.50;69.50
56725;DHT22;42608;52.776;6.968;2022-08-19T15:06:04;26.50;69.80
56725;DHT22;42608;52.776;6.968;2022-08-19T15:08:31;26.50;71.50
56725;DHT22;42608;52.776;6.968;2022-08-19T15:10:58;26.50;71.80
56725;DHT22;42608;52.776;6.968;2022-08-19T15:13:25;26.50;72.60
56725;DHT22;42608;52.776;6.968;2022-08-19T15:15:51;26.50;72.20
56725;DHT22;42608;52.776;6.968;2022-08-19T15:18:17;26.40;71.50
56725;DHT22;42608;52.776;6.968;2022-08-19T15:20:44;26.40;71.60
56725;DHT22;42608;52.776;6.968;2022-08-19T15:23:10;26.40;72.00
56725;DHT22;42608;52.776;6.968;2022-08-19T15:25:36;26.40;73.30
56725;DHT22;42608;52.776;6.968;2022-08-19T15:28:02;26.20;73.80
56725;DHT22;42608;52.776;6.968;2022-08-19T15:30:28;26.20;74.00
56725;DHT22;42608;52.776;6.968;2022-08-19T15:32:55;26.20;74.00
56725;DHT22;42608;52.776;6.968;2022-08-19T15:35:22;26.10;73.70
56725;DHT22;42608;52.776;6.968;2022-08-19T15:37:49;26.00;74.00
56725;DHT22;42608;52.776;6.968;2022-08-19T15:40:15;26.00;74.50
56725;DHT22;42608;52.776;6.968;2022-08-19T15:42:41;25.90;76.10
56725;DHT22;42608;52.776;6.968;2022-08-19T15:45:09;25.90;78.50
56725;DHT22;42608;52.776;6.968;2022-08-19T15:47:36;25.80;81.50
56725;DHT22;42608;52.776;6.968;2022-08-19T15:50:07;25.80;85.00
56725;DHT22;42608;52.776;6.968;2022-08-19T15:52:33;25.80;90.40
56725;DHT22;42608;52.776;6.968;2022-08-19T15:54:59;25.70;93.10